Time;durP1;ratioP1;P1;durP2;ratioP2;P2;SDS_P1;SDS_P2;PMS_P1;PMS_P2;Temp;Humidity;BMP_temperature;BMP_pressure;BME280_temperature;BME280_humidity;BME280_pressure;Samples;Min_cycle;Max_cycle;Signal;HPM_P1;HPM_P2
2022/03/31 00:02:09;;;;;;;;;;;;;;;;;;5087754;28;20059;-65
2022/03/31 00:04:37;;;;;;;9.82;2.60;;;;;;;;;;5088197;28;19924;-64
2022/03/31 00:07:04;;;;;;;7.38;2.15;;;;;;;;;;5078506;28;20097;-65
2022/03/31 00:09:30;;;;;;;;;;;;;;;;;;5069632;28;20040;-66
2022/03/31 00:11:59;;;;;;;9.90;2.30;;;;;;;;;;5081771;28;19924;-65
2022/03/31 00:14:28;;;;;;;8.48;2.30;;;;;;;;;;5069584;28;20060;-65
2022/03/31 00:16:54;;;;;;;11.68;2.55;;;;;;;;;;5074998;28;20103;-66
2022/03/31 00:19:20;;;;;;;;;;;;;;;;;;5076085;28;20098;-65
2022/03/31 00:21:48;;;;;;;12.38;2.92;;;;;;;;;;5084939;28;20042;-66
2022/03/31 00:24:15;;;;;;;12.05;2.40;;;;;;;;;;5101669;28;20181;-65
2022/03/31 00:26:41;;;;;;;8.57;2.58;;;;;;;;;;5080262;28;20350;-65
2022/03/31 00:29:07;;;;;;;10.40;2.50;;;;;;;;;;5088737;28;20162;-65
2022/03/31 00:31:34;;;;;;;9.10;2.33;;;;;;;;;;5083636;28;20140;-65
2022/03/31 00:34:00;;;;;;;9.43;2.22;;;;;;;;;;5087973;28;20040;-65
2022/03/31 00:36:26;;;;;;;10.20;2.20;;;;;;;;;;5085633;28;20040;-65
2022/03/31 00:41:37;;;;;;;10.90;2.40;;;;;;;;;;5077379;28;20486;-65
2022/03/31 00:44:04;;;;;;;8.07;2.20;;;;;;;;;;5087962;28;20130;-65
2022/03/31 00:46:34;;;;;;;11.38;2.65;;;;;;;;;;5082035;28;20043;-66
2022/03/31 00:49:01;;;;;;;9.38;2.20;;;;;;;;;;5069272;28;20096;-65
2022/03/31 00:51:28;;;;;;;11.38;2.50;;;;;;;;;;5080838;28;20056;-64
2022/03/31 00:53:54;;;;;;;;;;;;;;;;;;5084950;28;20113;-64
2022/03/31 00:56:20;;;;;;;11.85;2.78;;;;;;;;;;5069341;28;20284;-66
2022/03/31 00:58:47;;;;;;;8.63;2.10;;;;;;;;;;5080267;28;20052;-66
2022/03/31 01:01:14;;;;;;;9.38;2.35;;;;;;;;;;5086600;28;20463;-65
2022/03/31 01:03:40;;;;;;;7.10;2.28;;;;;;;;;;5070723;28;20142;-65
2022/03/31 01:06:07;;;;;;;7.10;2.22;;;;;;;;;;5068867;28;20053;-65
2022/03/31 01:08:33;;;;;;;7.30;2.35;;;;;;;;;;5082113;28;20054;-66
2022/03/31 01:10:59;;;;;;;;;;;;;;;;;;5085275;28;20048;-65
2022/03/31 01:13:25;;;;;;;7.57;2.30;;;;;;;;;;5083471;28;20391;-65
2022/03/31 01:15:52;;;;;;;10.00;2.50;;;;;;;;;;5075718;28;20467;-65
2022/03/31 01:18:18;;;;;;;;;;;;;;;;;;5090888;28;20039;-65
2022/03/31 01:20:44;;;;;;;8.50;2.58;;;;;;;;;;5085139;28;19927;-64
2022/03/31 01:23:14;;;;;;;12.70;3.20;;;;;;;;;;5072874;28;20109;-64
2022/03/31 01:25:40;;;;;;;11.95;3.42;;;;;;;;;;5072606;28;20343;-65
2022/03/31 01:28:06;;;;;;;;;;;;;;;;;;5073036;28;20040;-64
2022/03/31 01:30:33;;;;;;;11.55;4.20;;;;;;;;;;5088577;28;20015;-64
2022/03/31 01:32:59;;;;;;;14.10;4.85;;;;;;;;;;5087186;28;20481;-65
2022/03/31 01:35:26;;;;;;;10.13;4.63;;;;;;;;;;5090591;28;20162;-66
2022/03/31 01:37:52;;;;;;;13.18;4.97;;;;;;;;;;5071460;28;20040;-64
2022/03/31 01:40:18;;;;;;;16.67;5.72;;;;;;;;;;5089703;28;20064;-66
2022/03/31 01:42:44;;;;;;;14.35;5.60;;;;;;;;;;5090657;28;20067;-65
2022/03/31 01:45:18;;;;;;;;;;;;;;;;;;5083785;28;20060;-65
2022/03/31 01:47:44;;;;;;;11.70;5.82;;;;;;;;;;5070238;28;19925;-66
2022/03/31 01:50:10;;;;;;;;;;;;;;;;;;5079115;28;20403;-65
2022/03/31 01:52:37;;;;;;;13.40;6.13;;;;;;;;;;5086772;28;19966;-65
2022/03/31 01:55:04;;;;;;;12.75;6.38;;;;;;;;;;5071003;28;20063;-65
2022/03/31 01:57:30;;;;;;;13.18;6.50;;;;;;;;;;5072259;28;20135;-65
2022/03/31 01:59:56;;;;;;;12.02;6.03;;;;;;;;;;5087092;28;20054;-65
2022/03/31 02:02:22;;;;;;;15.10;6.72;;;;;;;;;;5074275;28;20040;-65
2022/03/31 02:04:48;;;;;;;14.63;6.80;;;;;;;;;;5074429;28;20573;-66
2022/03/31 02:07:14;;;;;;;12.07;6.57;;;;;;;;;;5086413;28;20075;-65
2022/03/31 02:09:41;;;;;;;12.60;6.65;;;;;;;;;;5090259;28;20119;-65
2022/03/31 02:12:07;;;;;;;;;;;;;;;;;;5078315;28;20056;-65
2022/03/31 02:14:37;;;;;;;13.90;6.50;;;;;;;;;;5077436;28;19920;-65
2022/03/31 02:17:04;;;;;;;15.35;7.25;;;;;;;;;;5078615;28;20150;-65
2022/03/31 02:19:31;;;;;;;12.93;7.57;;;;;;;;;;5079555;28;20036;-65
2022/03/31 02:22:00;;;;;;;15.68;7.75;;;;;;;;;;5083307;28;20136;-66
2022/03/31 02:24:26;;;;;;;17.17;8.00;;;;;;;;;;5071176;28;20067;-66
2022/03/31 02:26:52;;;;;;;15.55;8.00;;;;;;;;;;5087580;28;20115;-66
2022/03/31 02:29:19;;;;;;;16.13;8.38;;;;;;;;;;5089594;28;20043;-66
2022/03/31 02:31:48;;;;;;;;;;;;;;;;;;5081397;28;20372;-66
2022/03/31 02:34:14;;;;;;;14.55;9.35;;;;;;;;;;5083173;28;19919;-65
2022/03/31 02:36:41;;;;;;;18.27;8.52;;;;;;;;;;5087109;28;20144;-66
2022/03/31 02:39:07;;;;;;;19.40;9.68;;;;;;;;;;5087108;28;20043;-64
2022/03/31 02:41:34;;;;;;;16.52;9.20;;;;;;;;;;5088593;28;20154;-65
2022/03/31 02:44:00;;;;;;;15.90;9.27;;;;;;;;;;5076852;28;20127;-66
2022/03/31 02:46:27;;;;;;;16.92;9.68;;;;;;;;;;5069759;28;20044;-65
2022/03/31 02:48:54;;;;;;;16.90;9.30;;;;;;;;;;5067646;28;20064;-66
2022/03/31 02:51:20;;;;;;;17.02;10.00;;;;;;;;;;5080915;28;20087;-65
2022/03/31 02:56:31;;;;;;;19.25;11.18;;;;;;;;;;5080803;28;20036;-67
2022/03/31 02:58:57;;;;;;;17.77;11.45;;;;;;;;;;5083226;28;20121;-66
2022/03/31 03:01:23;;;;;;;16.33;11.02;;;;;;;;;;5071833;28;20155;-66
2022/03/31 03:03:50;;;;;;;17.98;10.45;;;;;;;;;;5072242;28;20040;-67
2022/03/31 03:06:16;;;;;;;17.08;10.00;;;;;;;;;;5070424;28;20119;-66
2022/03/31 03:08:43;;;;;;;17.77;10.02;;;;;;;;;;5071392;28;20087;-66
2022/03/31 03:11:09;;;;;;;17.17;9.10;;;;;;;;;;5086373;28;20544;-66
2022/03/31 03:13:36;;;;;;;16.05;9.40;;;;;;;;;;5083455;28;20055;-66
2022/03/31 03:16:08;;;;;;;22.65;12.75;;;;;;;;;;5069955;28;20052;-66
2022/03/31 03:18:34;;;;;;;21.17;13.80;;;;;;;;;;5088420;28;20475;-67
2022/03/31 03:21:00;;;;;;;;;;;;;;;;;;5085316;28;20170;-66
2022/03/31 03:23:26;;;;;;;24.42;17.17;;;;;;;;;;5087639;28;20317;-68
2022/03/31 03:25:52;;;;;;;24.90;18.05;;;;;;;;;;5085323;28;20422;-68
2022/03/31 03:28:19;;;;;;;24.02;16.77;;;;;;;;;;5080957;28;20036;-66
2022/03/31 03:30:45;;;;;;;20.67;14.82;;;;;;;;;;5084748;28;20448;-66
2022/03/31 03:33:11;;;;;;;;;;;;;;;;;;5079895;28;20052;-67
2022/03/31 03:35:37;;;;;;;14.70;8.95;;;;;;;;;;5083543;28;20006;-69
2022/03/31 03:38:03;;;;;;;15.02;8.38;;;;;;;;;;5086517;28;20044;-66
2022/03/31 03:40:31;;;;;;;12.30;7.30;;;;;;;;;;5088296;28;20060;-67
2022/03/31 03:42:58;;;;;;;12.80;6.90;;;;;;;;;;5049282;28;20059;-66
2022/03/31 03:45:24;;;;;;;;;;;;;;;;;;5081181;28;20185;-66
2022/03/31 03:47:50;;;;;;;11.23;6.20;;;;;;;;;;5078639;28;20011;-65
2022/03/31 03:50:16;;;;;;;;;;;;;;;;;;5086247;28;20075;-65
2022/03/31 03:52:42;;;;;;;11.13;6.18;;;;;;;;;;5087689;28;20493;-65
2022/03/31 03:55:09;;;;;;;11.32;6.47;;;;;;;;;;5085451;28;20064;-65
2022/03/31 03:57:35;;;;;;;11.70;7.13;;;;;;;;;;5070410;28;20511;-65
2022/03/31 04:00:01;;;;;;;11.82;7.35;;;;;;;;;;5080043;28;20116;-65
2022/03/31 04:02:27;;;;;;;13.27;8.52;;;;;;;;;;5088677;28;20044;-64
2022/03/31 04:04:53;;;;;;;14.65;8.98;;;;;;;;;;5088122;28;20119;-65
2022/03/31 04:07:19;;;;;;;13.13;8.43;;;;;;;;;;5084476;28;20044;-65
2022/03/31 04:09:45;;;;;;;12.82;8.00;;;;;;;;;;5086812;28;20117;-65
2022/03/31 04:12:11;;;;;;;13.43;7.88;;;;;;;;;;5087409;28;20048;-64
2022/03/31 04:14:37;;;;;;;13.40;7.60;;;;;;;;;;5083530;28;20333;-65
2022/03/31 04:17:04;;;;;;;13.73;7.72;;;;;;;;;;5085272;28;20067;-65
2022/03/31 04:19:30;;;;;;;13.70;7.63;;;;;;;;;;5069538;28;20044;-64
2022/03/31 04:21:56;;;;;;;15.05;7.25;;;;;;;;;;5071366;28;20040;-64
2022/03/31 04:24:25;;;;;;;12.50;6.53;;;;;;;;;;5077198;28;20067;-63
2022/03/31 04:26:51;;;;;;;14.60;6.68;;;;;;;;;;5083992;28;20063;-63
2022/03/31 04:29:17;;;;;;;12.82;6.32;;;;;;;;;;5083855;28;20143;-65
2022/03/31 04:31:44;;;;;;;13.68;7.15;;;;;;;;;;5085925;28;20091;-64
2022/03/31 04:34:11;;;;;;;15.48;6.70;;;;;;;;;;5085556;28;20070;-63
2022/03/31 04:36:37;;;;;;;13.27;6.35;;;;;;;;;;5088337;28;20093;-63
2022/03/31 04:39:04;;;;;;;15.45;7.32;;;;;;;;;;5085594;28;20044;-64
2022/03/31 04:41:30;;;;;;;10.65;5.70;;;;;;;;;;5086020;28;20465;-63
2022/03/31 04:43:56;;;;;;;14.07;6.90;;;;;;;;;;5080228;28;20053;-63
2022/03/31 04:46:22;;;;;;;12.80;7.13;;;;;;;;;;5085872;28;20484;-63
2022/03/31 04:48:48;;;;;;;12.20;6.55;;;;;;;;;;5089669;28;20119;-63
2022/03/31 04:51:15;;;;;;;12.68;6.80;;;;;;;;;;5087615;28;20050;-63
2022/03/31 04:53:41;;;;;;;15.75;7.57;;;;;;;;;;5087217;28;20054;-63
2022/03/31 04:56:07;;;;;;;14.45;7.10;;;;;;;;;;5090328;28;20052;-64
2022/03/31 04:58:33;;;;;;;13.65;7.43;;;;;;;;;;5091254;28;20199;-64
2022/03/31 05:00:59;;;;;;;12.85;7.38;;;;;;;;;;5082948;28;20474;-63
2022/03/31 05:03:28;;;;;;;15.45;7.72;;;;;;;;;;5074398;28;20078;-65
2022/03/31 05:05:54;;;;;;;15.43;8.43;;;;;;;;;;5088383;28;20136;-63
2022/03/31 05:08:20;;;;;;;15.90;8.43;;;;;;;;;;5082153;28;20452;-63
2022/03/31 05:10:46;;;;;;;15.38;8.50;;;;;;;;;;5089050;28;20556;-64
2022/03/31 05:13:12;;;;;;;17.77;8.55;;;;;;;;;;5086567;28;20070;-63
2022/03/31 05:15:39;;;;;;;15.02;8.70;;;;;;;;;;5083681;28;20104;-63
2022/03/31 05:18:05;;;;;;;17.58;9.13;;;;;;;;;;5088695;28;20062;-64
2022/03/31 05:20:31;;;;;;;16.00;9.45;;;;;;;;;;5086264;28;20388;-63
2022/03/31 05:22:57;;;;;;;14.70;8.95;;;;;;;;;;5073776;28;20048;-64
2022/03/31 05:25:24;;;;;;;16.42;8.77;;;;;;;;;;5086956;28;20048;-63
2022/03/31 05:27:51;;;;;;;17.75;9.48;;;;;;;;;;5077716;28;20376;-64
2022/03/31 05:30:22;;;;;;;17.15;9.38;;;;;;;;;;5086826;28;20440;-64
2022/03/31 05:32:48;;;;;;;15.07;9.88;;;;;;;;;;5070713;28;20161;-64
2022/03/31 05:35:15;;;;;;;16.23;9.65;;;;;;;;;;5079671;28;20044;-63
2022/03/31 05:37:43;;;;;;;15.35;10.10;;;;;;;;;;5079681;28;20040;-64
2022/03/31 05:40:09;;;;;;;16.70;11.65;;;;;;;;;;5076529;28;20445;-65
2022/03/31 05:42:39;;;;;;;19.10;11.05;;;;;;;;;;5086644;28;20060;-63
2022/03/31 05:45:07;;;;;;;16.38;11.13;;;;;;;;;;5086672;28;20066;-63
2022/03/31 05:47:33;;;;;;;16.50;11.43;;;;;;;;;;5081755;28;20105;-63
2022/03/31 05:49:59;;;;;;;18.05;10.90;;;;;;;;;;5102509;28;21901;-64
2022/03/31 05:52:25;;;;;;;16.33;10.88;;;;;;;;;;5089879;28;20408;-63
2022/03/31 05:54:53;;;;;;;17.50;11.82;;;;;;;;;;5090972;28;20690;-61
2022/03/31 05:57:19;;;;;;;17.92;12.15;;;;;;;;;;5082633;28;20047;-63
2022/03/31 05:59:45;;;;;;;;;;;;;;;;;;5085468;28;20048;-64
2022/03/31 06:02:11;;;;;;;20.38;12.52;;;;;;;;;;5073645;28;19943;-62
2022/03/31 06:04:38;;;;;;;18.52;12.82;;;;;;;;;;5087825;28;20117;-63
2022/03/31 06:07:05;;;;;;;18.65;13.07;;;;;;;;;;5087656;28;20085;-63
2022/03/31 06:09:34;;;;;;;23.60;14.63;;;;;;;;;;5090573;28;20094;-63
2022/03/31 06:12:00;;;;;;;19.27;13.52;;;;;;;;;;5087946;28;20194;-64
2022/03/31 06:14:26;;;;;;;18.45;12.70;;;;;;;;;;5069615;28;20048;-64
2022/03/31 06:16:52;;;;;;;;;;;;;;;;;;5070820;28;20048;-63
2022/03/31 06:19:19;;;;;;;19.33;13.07;;;;;;;;;;5072806;28;19973;-64
2022/03/31 06:21:45;;;;;;;18.65;12.93;;;;;;;;;;5089777;28;20372;-63
2022/03/31 06:24:11;;;;;;;;;;;;;;;;;;5089959;28;20048;-65
2022/03/31 06:26:37;;;;;;;20.42;13.60;;;;;;;;;;5084583;28;19920;-64
2022/03/31 06:29:07;;;;;;;21.52;13.82;;;;;;;;;;5071558;28;20161;-64
2022/03/31 06:31:33;;;;;;;21.25;13.88;;;;;;;;;;5061155;28;20421;-64
2022/03/31 06:33:59;;;;;;;20.88;14.45;;;;;;;;;;5075165;28;20060;-64
2022/03/31 06:36:25;;;;;;;;;;;;;;;;;;5081826;28;20052;-64
2022/03/31 06:38:51;;;;;;;21.65;15.05;;;;;;;;;;5075215;28;19927;-64
2022/03/31 06:41:18;;;;;;;23.52;15.50;;;;;;;;;;5073040;28;20224;-65
2022/03/31 06:43:45;;;;;;;24.58;16.25;;;;;;;;;;5073381;28;20048;-65
2022/03/31 06:46:11;;;;;;;24.70;16.40;;;;;;;;;;5080177;28;20080;-65
2022/03/31 06:48:37;;;;;;;;;;;;;;;;;;5085553;28;20055;-64
2022/03/31 06:51:04;;;;;;;22.70;15.02;;;;;;;;;;5084013;28;19998;-65
2022/03/31 06:53:31;;;;;;;23.67;16.20;;;;;;;;;;5068194;28;20093;-65
2022/03/31 06:55:57;;;;;;;20.17;14.60;;;;;;;;;;5078650;28;20040;-62
2022/03/31 06:58:27;;;;;;;24.48;15.98;;;;;;;;;;5082364;28;20044;-65
2022/03/31 07:00:54;;;;;;;21.85;15.02;;;;;;;;;;5082971;28;20036;-64
2022/03/31 07:03:20;;;;;;;22.17;15.48;;;;;;;;;;5075031;28;20075;-65
2022/03/31 07:05:46;;;;;;;22.02;15.63;;;;;;;;;;5078990;28;20070;-65
2022/03/31 07:08:16;;;;;;;22.13;15.82;;;;;;;;;;5094471;28;20079;-65
2022/03/31 07:10:43;;;;;;;;;;;;;;;;;;5069291;28;20052;-66
2022/03/31 07:13:09;;;;;;;22.85;15.73;;;;;;;;;;5085207;28;20347;-66
2022/03/31 07:15:35;;;;;;;24.73;16.52;;;;;;;;;;5062343;28;20051;-64
2022/03/31 07:18:10;;;;;;;22.65;16.05;;;;;;;;;;5067144;28;20124;-64
2022/03/31 07:20:37;;;;;;;23.48;17.08;;;;;;;;;;5066616;28;20052;-64
2022/03/31 07:23:03;;;;;;;26.10;17.20;;;;;;;;;;5074959;28;20040;-64
2022/03/31 07:25:30;;;;;;;23.75;16.50;;;;;;;;;;5068503;28;20335;-64
2022/03/31 07:27:57;;;;;;;25.63;17.73;;;;;;;;;;5067231;28;20108;-63
2022/03/31 07:30:23;;;;;;;27.58;19.25;;;;;;;;;;5066175;28;20100;-64
2022/03/31 07:32:50;;;;;;;25.75;17.48;;;;;;;;;;5067455;28;20102;-63
2022/03/31 07:35:17;;;;;;;26.73;19.17;;;;;;;;;;5066313;28;20054;-64
2022/03/31 07:37:44;;;;;;;25.88;18.20;;;;;;;;;;5073810;28;20128;-63
2022/03/31 07:40:15;;;;;;;26.30;18.45;;;;;;;;;;5077674;28;20044;-64
2022/03/31 07:42:42;;;;;;;25.85;18.23;;;;;;;;;;5077857;28;20124;-63
2022/03/31 07:45:09;;;;;;;25.90;17.35;;;;;;;;;;5080022;28;20047;-64
2022/03/31 07:47:35;;;;;;;24.52;17.70;;;;;;;;;;5072850;28;20365;-64
2022/03/31 07:50:06;;;;;;;26.13;17.95;;;;;;;;;;5072487;28;20052;-64
2022/03/31 07:52:34;;;;;;;26.00;18.02;;;;;;;;;;5070893;28;20099;-65
2022/03/31 07:55:01;;;;;;;23.55;16.73;;;;;;;;;;5079945;28;20524;-64
2022/03/31 07:57:27;;;;;;;23.85;16.73;;;;;;;;;;5064041;28;20469;-65
2022/03/31 07:59:53;;;;;;;25.60;17.25;;;;;;;;;;5068566;28;20246;-64
2022/03/31 08:02:19;;;;;;;25.73;17.48;;;;;;;;;;5081418;28;20065;-64
2022/03/31 08:04:45;;;;;;;24.90;17.00;;;;;;;;;;5072572;28;20044;-64
2022/03/31 08:07:11;;;;;;;23.70;16.70;;;;;;;;;;5071639;28;20052;-64
2022/03/31 08:09:37;;;;;;;23.67;15.95;;;;;;;;;;5071049;28;20506;-64
2022/03/31 08:12:05;;;;;;;22.65;16.05;;;;;;;;;;5080719;28;20043;-64
2022/03/31 08:14:32;;;;;;;28.08;17.92;;;;;;;;;;5084254;28;20123;-64
2022/03/31 08:16:58;;;;;;;27.30;17.60;;;;;;;;;;5079409;28;20070;-64
2022/03/31 08:19:24;;;;;;;24.00;16.27;;;;;;;;;;5081694;28;20048;-66
2022/03/31 08:21:50;;;;;;;24.30;17.23;;;;;;;;;;5082069;28;20143;-65
2022/03/31 08:24:16;;;;;;;;;;;;;;;;;;5088133;28;20111;-74
2022/03/31 08:26:43;;;;;;;27.13;17.52;;;;;;;;;;5082454;28;20098;-64
2022/03/31 08:29:10;;;;;;;23.77;16.73;;;;;;;;;;5089486;28;20039;-64
2022/03/31 08:31:36;;;;;;;25.40;17.40;;;;;;;;;;5082831;28;20449;-64
2022/03/31 08:34:03;;;;;;;24.67;17.13;;;;;;;;;;5074200;28;20056;-64
2022/03/31 08:36:30;;;;;;;25.42;16.52;;;;;;;;;;5083202;28;20048;-65
2022/03/31 08:38:56;;;;;;;26.02;16.38;;;;;;;;;;5089872;28;20086;-65
2022/03/31 08:41:26;;;;;;;26.75;17.27;;;;;;;;;;5083773;28;20457;-64
2022/03/31 08:43:53;;;;;;;25.85;16.63;;;;;;;;;;5080432;28;20047;-62
2022/03/31 08:46:20;;;;;;;27.00;17.20;;;;;;;;;;5087981;28;20047;-64
2022/03/31 08:48:47;;;;;;;27.20;17.98;;;;;;;;;;5089059;28;20044;-63
2022/03/31 08:51:13;;;;;;;28.38;18.25;;;;;;;;;;5073935;28;20119;-63
2022/03/31 08:53:39;;;;;;;29.05;17.73;;;;;;;;;;5074413;28;20424;-65
2022/03/31 08:56:06;;;;;;;31.92;19.90;;;;;;;;;;5078609;28;20141;-63
2022/03/31 08:58:32;;;;;;;31.00;20.20;;;;;;;;;;5110375;27;20089;-64
2022/03/31 09:00:58;;;;;;;32.90;19.80;;;;;;;;;;5082489;28;20151;-64
2022/03/31 09:03:34;;;;;;;30.70;18.15;;;;;;;;;;5091265;28;20051;-63
2022/03/31 09:06:00;;;;;;;28.95;17.92;;;;;;;;;;5081951;28;20127;-64
2022/03/31 09:08:26;;;;;;;28.23;16.63;;;;;;;;;;5079387;28;20455;-64
2022/03/31 09:10:57;;;;;;;24.85;16.30;;;;;;;;;;5086852;28;20071;-64
2022/03/31 09:13:24;;;;;;;25.48;16.23;;;;;;;;;;5084181;28;20436;-64
2022/03/31 09:16:06;;;;;;;24.75;15.23;;;;;;;;;;5090526;28;20052;-64
2022/03/31 09:18:33;;;;;;;25.13;15.02;;;;;;;;;;5076913;28;20162;-64
2022/03/31 09:21:00;;;;;;;24.30;15.07;;;;;;;;;;5089628;28;20468;-63
2022/03/31 09:23:39;;;;;;;26.85;14.55;;;;;;;;;;5086631;28;20059;-67
2022/03/31 09:26:08;;;;;;;21.38;13.77;;;;;;;;;;5085617;28;20063;-63
2022/03/31 09:28:36;;;;;;;21.88;13.50;;;;;;;;;;5081182;28;20059;-63
2022/03/31 09:31:03;;;;;;;22.48;13.57;;;;;;;;;;5079831;28;20198;-64
2022/03/31 09:33:31;;;;;;;20.95;12.57;;;;;;;;;;5087056;28;20040;-65
2022/03/31 09:36:01;;;;;;;21.10;12.52;;;;;;;;;;5089329;28;20329;-64
2022/03/31 09:38:28;;;;;;;19.05;12.23;;;;;;;;;;5080079;28;20044;-65
2022/03/31 09:40:54;;;;;;;19.08;12.10;;;;;;;;;;5086156;28;20078;-65
2022/03/31 09:43:21;;;;;;;19.33;12.27;;;;;;;;;;5086022;28;20051;-65
2022/03/31 09:45:48;;;;;;;19.52;12.18;;;;;;;;;;5078454;28;20147;-66
2022/03/31 09:48:21;;;;;;;18.30;11.18;;;;;;;;;;5090279;28;20047;-67
2022/03/31 09:50:48;;;;;;;21.90;13.10;;;;;;;;;;5085015;28;20135;-64
2022/03/31 09:53:15;;;;;;;20.40;12.55;;;;;;;;;;5079542;28;20162;-66
2022/03/31 09:55:47;;;;;;;22.65;13.65;;;;;;;;;;5086395;28;20036;-65
2022/03/31 09:58:18;;;;;;;21.05;13.10;;;;;;;;;;5081587;28;20621;-65
2022/03/31 10:00:45;;;;;;;23.10;14.15;;;;;;;;;;5083540;28;20048;-66
2022/03/31 10:03:15;;;;;;;23.67;13.63;;;;;;;;;;5086973;28;20048;-65
2022/03/31 10:05:42;;;;;;;22.20;13.57;;;;;;;;;;5085378;28;20352;-67
2022/03/31 10:08:12;;;;;;;23.15;13.88;;;;;;;;;;5087791;28;20051;-66
2022/03/31 10:10:38;;;;;;;22.13;13.02;;;;;;;;;;5088636;28;20040;-64
2022/03/31 10:13:18;;;;;;;24.77;14.45;;;;;;;;;;5081830;28;20127;-66
2022/03/31 10:15:45;;;;;;;22.60;14.02;;;;;;;;;;5095573;28;20047;-67
2022/03/31 10:18:19;;;;;;;22.77;13.60;;;;;;;;;;5079669;28;20111;-67
2022/03/31 10:20:58;;;;;;;23.00;13.82;;;;;;;;;;5087671;28;20051;-65
2022/03/31 10:26:20;;;;;;;24.65;13.98;;;;;;;;;;5084747;28;20437;-65
2022/03/31 10:28:53;;;;;;;23.40;14.00;;;;;;;;;;5077445;28;20123;-65
2022/03/31 10:31:19;;;;;;;26.15;14.50;;;;;;;;;;5086886;28;20448;-65
2022/03/31 10:33:51;;;;;;;21.25;13.35;;;;;;;;;;5085910;28;20476;-65
2022/03/31 10:36:22;;;;;;;20.27;12.20;;;;;;;;;;5084186;28;20101;-64
2022/03/31 10:39:01;;;;;;;26.40;12.27;;;;;;;;;;5072759;28;20033;-63
2022/03/31 10:41:34;;;;;;;21.45;11.88;;;;;;;;;;5079484;28;20159;-64
2022/03/31 10:44:03;;;;;;;18.77;11.82;;;;;;;;;;5076844;28;20048;-64
2022/03/31 10:46:32;;;;;;;18.98;11.93;;;;;;;;;;5079003;28;20040;-64
2022/03/31 10:48:58;;;;;;;20.00;12.82;;;;;;;;;;5095285;28;20043;-65
2022/03/31 10:51:35;;;;;;;22.65;13.18;;;;;;;;;;5071035;28;20056;-65
2022/03/31 10:54:01;;;;;;;20.33;12.23;;;;;;;;;;5070546;28;20206;-64
2022/03/31 10:56:29;;;;;;;20.08;12.55;;;;;;;;;;5085705;28;20048;-65
2022/03/31 10:58:56;;;;;;;20.67;12.93;;;;;;;;;;5087800;28;20125;-64
2022/03/31 11:01:23;;;;;;;21.67;13.32;;;;;;;;;;5080315;28;20080;-65
2022/03/31 11:03:59;;;;;;;20.75;13.63;;;;;;;;;;5080765;28;20059;-66
2022/03/31 11:06:25;;;;;;;21.25;13.55;;;;;;;;;;5086850;28;20076;-65
2022/03/31 11:08:51;;;;;;;21.65;14.20;;;;;;;;;;5076560;28;20476;-63
2022/03/31 11:11:20;;;;;;;22.20;14.48;;;;;;;;;;5081513;28;20521;-67
2022/03/31 11:13:46;;;;;;;20.27;13.48;;;;;;;;;;5088587;28;20066;-65
2022/03/31 11:16:15;;;;;;;21.42;13.30;;;;;;;;;;5078273;28;20072;-66
2022/03/31 11:18:41;;;;;;;22.90;14.23;;;;;;;;;;5082882;28;20044;-65
2022/03/31 11:21:07;;;;;;;26.52;13.63;;;;;;;;;;5062343;28;20044;-64
2022/03/31 11:23:33;;;;;;;21.75;13.43;;;;;;;;;;5088125;28;20095;-63
2022/03/31 11:25:59;;;;;;;25.00;14.45;;;;;;;;;;5086228;28;20128;-64
2022/03/31 11:28:30;;;;;;;25.58;18.15;;;;;;;;;;5077320;28;20398;-65
2022/03/31 11:30:58;;;;;;;23.88;14.07;;;;;;;;;;5082646;28;20040;-65
2022/03/31 11:33:33;;;;;;;22.25;14.07;;;;;;;;;;5074931;28;20306;-65
2022/03/31 11:35:59;;;;;;;20.63;13.30;;;;;;;;;;5067581;28;20052;-65
2022/03/31 11:38:25;;;;;;;22.25;12.45;;;;;;;;;;5067982;28;20157;-66
2022/03/31 11:40:56;;;;;;;22.15;12.80;;;;;;;;;;5077974;28;20120;-65
2022/03/31 11:43:32;;;;;;;19.25;12.70;;;;;;;;;;5084984;28;20093;-65
2022/03/31 11:45:58;;;;;;;21.10;13.48;;;;;;;;;;5072873;28;20117;-65
2022/03/31 11:48:30;;;;;;;21.52;13.98;;;;;;;;;;5084902;28;20437;-66
2022/03/31 11:51:00;;;;;;;20.95;13.55;;;;;;;;;;5076496;28;20059;-66
2022/03/31 11:53:28;;;;;;;21.73;13.35;;;;;;;;;;5087149;28;20166;-67
2022/03/31 11:56:02;;;;;;;22.33;13.43;;;;;;;;;;5083095;28;20036;-66
2022/03/31 11:58:45;;;;;;;20.60;12.50;;;;;;;;;;5068262;28;20178;-65
2022/03/31 12:01:11;;;;;;;19.80;12.77;;;;;;;;;;5072109;28;20056;-66
2022/03/31 12:03:38;;;;;;;19.45;12.65;;;;;;;;;;5081210;28;20054;-66
2022/03/31 12:06:05;;;;;;;21.33;13.63;;;;;;;;;;5086408;28;20154;-66
2022/03/31 12:08:32;;;;;;;19.05;11.82;;;;;;;;;;5088281;28;20474;-66
2022/03/31 12:10:59;;;;;;;20.23;12.88;;;;;;;;;;5083910;28;20093;-66
2022/03/31 12:13:28;;;;;;;20.17;12.48;;;;;;;;;;5087018;28;20040;-66
2022/03/31 12:15:54;;;;;;;;;;;;;;;;;;5074549;28;20070;-65
2022/03/31 12:18:22;;;;;;;24.02;12.98;;;;;;;;;;5068300;28;19942;-66
2022/03/31 12:20:58;;;;;;;21.90;13.80;;;;;;;;;;5068511;28;20066;-66
2022/03/31 12:23:26;;;;;;;22.77;14.23;;;;;;;;;;5068077;28;20448;-68
2022/03/31 12:25:52;;;;;;;21.48;14.07;;;;;;;;;;5071491;28;20443;-66
2022/03/31 12:28:23;;;;;;;23.13;15.10;;;;;;;;;;5068361;28;20053;-67
2022/03/31 12:30:49;;;;;;;24.95;16.67;;;;;;;;;;5067941;28;20084;-68
2022/03/31 12:33:17;;;;;;;24.52;16.13;;;;;;;;;;5068301;28;20088;-66
2022/03/31 12:35:55;;;;;;;24.58;15.95;;;;;;;;;;5073375;28;20040;-67
2022/03/31 12:38:31;;;;;;;24.27;16.05;;;;;;;;;;5074075;28;20483;-66
2022/03/31 12:40:59;;;;;;;27.55;17.33;;;;;;;;;;5078721;28;20052;-65
2022/03/31 12:43:25;;;;;;;27.23;16.95;;;;;;;;;;5072621;28;20075;-67
2022/03/31 12:45:52;;;;;;;31.13;19.50;;;;;;;;;;5082589;28;20109;-66
2022/03/31 12:48:19;;;;;;;27.08;18.10;;;;;;;;;;5084532;28;20040;-65
2022/03/31 12:50:45;;;;;;;27.65;17.95;;;;;;;;;;5070073;28;20041;-66
2022/03/31 12:53:12;;;;;;;28.58;18.13;;;;;;;;;;5067170;28;20055;-66
2022/03/31 12:55:38;;;;;;;;;;;;;;;;;;5076821;28;20490;-66
2022/03/31 12:58:06;;;;;;;23.98;16.80;;;;;;;;;;5079455;28;19923;-66
2022/03/31 13:00:33;;;;;;;28.63;18.42;;;;;;;;;;5081618;28;20195;-65
2022/03/31 13:03:01;;;;;;;27.08;17.75;;;;;;;;;;5079948;28;20100;-66
2022/03/31 13:05:30;;;;;;;28.75;18.98;;;;;;;;;;5086446;28;20484;-66
2022/03/31 13:07:57;;;;;;;27.20;18.88;;;;;;;;;;5085887;28;20089;-64
2022/03/31 13:10:25;;;;;;;33.35;21.45;;;;;;;;;;5059011;28;20036;-65
2022/03/31 13:12:51;;;;;;;31.15;21.77;;;;;;;;;;5082108;28;20044;-67
2022/03/31 13:15:18;;;;;;;32.67;21.55;;;;;;;;;;5087944;28;20696;-66
2022/03/31 13:17:45;;;;;;;33.90;22.27;;;;;;;;;;5089691;28;20098;-67
2022/03/31 13:20:19;;;;;;;35.35;23.00;;;;;;;;;;5086793;28;20051;-67
2022/03/31 13:22:45;;;;;;;38.60;25.50;;;;;;;;;;5080145;28;20056;-67
2022/03/31 13:25:11;;;;;;;38.33;26.77;;;;;;;;;;5076531;28;20266;-67
2022/03/31 13:27:37;;;;;;;39.83;26.20;;;;;;;;;;5086424;28;20048;-66
2022/03/31 13:30:07;;;;;;;42.15;28.10;;;;;;;;;;5073269;28;20055;-67
2022/03/31 13:32:33;;;;;;;41.05;27.45;;;;;;;;;;5090518;28;20040;-68
2022/03/31 13:34:59;;;;;;;51.55;31.27;;;;;;;;;;5084057;28;20075;-66
2022/03/31 13:37:26;;;;;;;42.47;26.30;;;;;;;;;;5073771;28;20173;-69
2022/03/31 13:39:52;;;;;;;37.38;24.23;;;;;;;;;;5085286;28;20040;-68
2022/03/31 13:42:19;;;;;;;35.97;24.00;;;;;;;;;;5070494;28;20215;-70
2022/03/31 13:44:49;;;;;;;37.63;24.45;;;;;;;;;;5090150;28;20051;-70
2022/03/31 13:47:15;;;;;;;43.53;26.00;;;;;;;;;;5087692;28;20080;-70
2022/03/31 13:49:41;;;;;;;34.00;22.98;;;;;;;;;;5080916;28;20067;-71
2022/03/31 13:52:08;;;;;;;34.65;22.80;;;;;;;;;;5082821;28;20452;-70
2022/03/31 13:54:36;;;;;;;37.55;24.40;;;;;;;;;;5074537;28;20168;-67
2022/03/31 13:57:03;;;;;;;37.45;24.38;;;;;;;;;;5071105;28;20052;-67
2022/03/31 14:02:16;;;;;;;34.60;22.35;;;;;;;;;;5071695;28;20233;-71
2022/03/31 14:04:42;;;;;;;37.85;23.50;;;;;;;;;;5075087;28;20114;-70
2022/03/31 14:07:08;;;;;;;42.50;24.90;;;;;;;;;;5084080;28;20444;-69
2022/03/31 14:09:35;;;;;;;;;;;;;;;;;;5088897;28;20044;-70
2022/03/31 14:12:01;;;;;;;38.53;23.77;;;;;;;;;;5086535;28;20034;-70
2022/03/31 14:14:28;;;;;;;36.50;23.58;;;;;;;;;;5087440;28;20040;-70
2022/03/31 14:17:02;;;;;;;33.80;23.23;;;;;;;;;;5076324;28;20045;-70
2022/03/31 14:19:35;;;;;;;41.92;25.40;;;;;;;;;;5068857;28;20040;-70
2022/03/31 14:22:03;;;;;;;35.60;22.65;;;;;;;;;;5089187;28;20052;-70
2022/03/31 14:24:29;;;;;;;33.67;23.75;;;;;;;;;;5089535;28;20081;-69
2022/03/31 14:26:56;;;;;;;38.13;22.35;;;;;;;;;;5089974;28;20131;-69
2022/03/31 14:29:23;;;;;;;35.75;23.50;;;;;;;;;;5089458;28;20059;-70
2022/03/31 14:31:50;;;;;;;41.20;23.88;;;;;;;;;;5076434;28;20192;-69
2022/03/31 14:34:17;;;;;;;35.22;22.67;;;;;;;;;;5085098;28;20059;-69
2022/03/31 14:36:49;;;;;;;36.00;22.80;;;;;;;;;;5086042;28;20056;-67
2022/03/31 14:39:16;;;;;;;37.65;23.00;;;;;;;;;;5067783;28;20049;-71
2022/03/31 14:41:44;;;;;;;34.35;21.17;;;;;;;;;;5084707;28;20110;-70
2022/03/31 14:44:11;;;;;;;33.58;20.73;;;;;;;;;;5099889;28;20135;-77